sensor_id;sensor_type;location;lat;lon;timestamp;pressure;altitude;pressure_sealevel;temperature;humidity
16664;BME280;8445;51.270;9.434;2023-11-18T00:01:36;100372.41;;;2.86;80.54
16664;BME280;8445;51.270;9.434;2023-11-18T00:04:05;100361.75;;;2.76;80.38
16664;BME280;8445;51.270;9.434;2023-11-18T00:06:38;100375.84;;;2.86;80.65
16664;BME280;8445;51.270;9.434;2023-11-18T00:09:05;100352.06;;;2.77;81.07
16664;BME280;8445;51.270;9.434;2023-11-18T00:11:33;100373.81;;;2.90;80.76
16664;BME280;8445;51.270;9.434;2023-11-18T00:14:01;100364.97;;;2.91;81.05
16664;BME280;8445;51.270;9.434;2023-11-18T00:16:33;100381.38;;;2.94;81.25
16664;BME280;8445;51.270;9.434;2023-11-18T00:19:01;100362.00;;;2.95;80.93
16664;BME280;8445;51.270;9.434;2023-11-18T00:21:32;100351.22;;;2.87;81.16
16664;BME280;8445;51.270;9.434;2023-11-18T00:23:59;100345.97;;;2.87;81.14
16664;BME280;8445;51.270;9.434;2023-11-18T00:26:28;100367.97;;;2.97;81.25
16664;BME280;8445;51.270;9.434;2023-11-18T00:28:59;100372.50;;;3.07;81.15
16664;BME280;8445;51.270;9.434;2023-11-18T00:31:27;100367.47;;;3.04;81.43
16664;BME280;8445;51.270;9.434;2023-11-18T00:33:55;100356.94;;;3.04;80.74
16664;BME280;8445;51.270;9.434;2023-11-18T00:36:22;100365.22;;;3.10;80.85
16664;BME280;8445;51.270;9.434;2023-11-18T00:38:49;100367.84;;;3.10;80.79
16664;BME280;8445;51.270;9.434;2023-11-18T00:41:18;100367.72;;;3.12;80.44
16664;BME280;8445;51.270;9.434;2023-11-18T00:43:45;100348.59;;;2.99;80.63
16664;BME280;8445;51.270;9.434;2023-11-18T00:46:12;100358.75;;;3.03;80.88
16664;BME280;8445;51.270;9.434;2023-11-18T00:48:40;100371.06;;;3.03;80.65
16664;BME280;8445;51.270;9.434;2023-11-18T00:51:06;100367.97;;;2.97;80.71
16664;BME280;8445;51.270;9.434;2023-11-18T00:53:33;100373.69;;;2.91;80.78
16664;BME280;8445;51.270;9.434;2023-11-18T00:55:59;100380.16;;;2.87;80.15
16664;BME280;8445;51.270;9.434;2023-11-18T00:58:26;100382.78;;;2.76;80.66
16664;BME280;8445;51.270;9.434;2023-11-18T01:00:52;100379.09;;;2.67;80.83
16664;BME280;8445;51.270;9.434;2023-11-18T01:03:18;100381.09;;;2.64;80.85
16664;BME280;8445;51.270;9.434;2023-11-18T01:05:44;100364.34;;;2.43;80.93
16664;BME280;8445;51.270;9.434;2023-11-18T01:08:10;100392.06;;;2.47;80.95
16664;BME280;8445;51.270;9.434;2023-11-18T01:10:36;100374.97;;;2.30;80.97
16664;BME280;8445;51.270;9.434;2023-11-18T01:13:03;100395.16;;;2.29;80.96
16664;BME280;8445;51.270;9.434;2023-11-18T01:15:29;100392.25;;;2.21;80.80
16664;BME280;8445;51.270;9.434;2023-11-18T01:17:58;100388.41;;;2.14;81.44
16664;BME280;8445;51.270;9.434;2023-11-18T01:20:24;100395.06;;;2.07;81.42
16664;BME280;8445;51.270;9.434;2023-11-18T01:22:50;100413.47;;;2.07;81.55
16664;BME280;8445;51.270;9.434;2023-11-18T01:25:16;100393.69;;;1.90;81.84
16664;BME280;8445;51.270;9.434;2023-11-18T01:27:43;100401.47;;;1.92;81.57
16664;BME280;8445;51.270;9.434;2023-11-18T01:30:13;100388.50;;;1.77;81.64
16664;BME280;8445;51.270;9.434;2023-11-18T01:32:40;100410.53;;;1.88;81.38
16664;BME280;8445;51.270;9.434;2023-11-18T01:35:06;100394.19;;;1.71;81.46
16664;BME280;8445;51.270;9.434;2023-11-18T01:37:33;100402.72;;;1.75;81.61
16664;BME280;8445;51.270;9.434;2023-11-18T01:40:00;100403.38;;;1.66;81.59
16664;BME280;8445;51.270;9.434;2023-11-18T01:42:30;100410.63;;;1.62;81.64
16664;BME280;8445;51.270;9.434;2023-11-18T01:44:57;100415.47;;;1.56;81.59
16664;BME280;8445;51.270;9.434;2023-11-18T01:47:26;100418.22;;;1.54;81.77
16664;BME280;8445;51.270;9.434;2023-11-18T01:49:52;100394.25;;;1.35;81.89
16664;BME280;8445;51.270;9.434;2023-11-18T01:52:19;100424.88;;;1.47;81.90
16664;BME280;8445;51.270;9.434;2023-11-18T01:54:48;100435.56;;;1.44;81.94
16664;BME280;8445;51.270;9.434;2023-11-18T01:57:14;100430.88;;;1.36;82.07
16664;BME280;8445;51.270;9.434;2023-11-18T01:59:41;100430.22;;;1.33;82.06
16664;BME280;8445;51.270;9.434;2023-11-18T02:02:07;100431.16;;;1.32;82.08
16664;BME280;8445;51.270;9.434;2023-11-18T02:04:33;100405.50;;;1.11;82.06
16664;BME280;8445;51.270;9.434;2023-11-18T02:07:00;100433.63;;;1.22;81.99
16664;BME280;8445;51.270;9.434;2023-11-18T02:09:29;100412.84;;;1.06;81.92
16664;BME280;8445;51.270;9.434;2023-11-18T02:13:01;100436.16;;;1.11;81.77
16664;BME280;8445;51.270;9.434;2023-11-18T02:15:35;100428.91;;;1.02;81.97
16664;BME280;8445;51.270;9.434;2023-11-18T02:18:03;100415.09;;;0.87;81.61
16664;BME280;8445;51.270;9.434;2023-11-18T02:20:34;100430.31;;;0.95;81.92
16664;BME280;8445;51.270;9.434;2023-11-18T02:23:01;100444.66;;;0.89;81.81
16664;BME280;8445;51.270;9.434;2023-11-18T02:25:29;100436.28;;;0.84;82.32
16664;BME280;8445;51.270;9.434;2023-11-18T02:27:59;100429.88;;;0.75;82.02
16664;BME280;8445;51.270;9.434;2023-11-18T02:30:25;100427.78;;;0.68;82.09
16664;BME280;8445;51.270;9.434;2023-11-18T02:33:15;100433.34;;;0.63;82.33
16664;BME280;8445;51.270;9.434;2023-11-18T02:36:00;100434.50;;;0.59;82.07
16664;BME280;8445;51.270;9.434;2023-11-18T02:38:40;100439.72;;;0.59;82.25
16664;BME280;8445;51.270;9.434;2023-11-18T02:41:13;100433.03;;;0.55;82.21
16664;BME280;8445;51.270;9.434;2023-11-18T02:43:41;100436.78;;;0.51;82.68
16664;BME280;8445;51.270;9.434;2023-11-18T02:46:09;100450.19;;;0.46;83.14
16664;BME280;8445;51.270;9.434;2023-11-18T02:48:35;100431.50;;;0.38;83.04
16664;BME280;8445;51.270;9.434;2023-11-18T02:51:03;100439.28;;;0.40;82.62
16664;BME280;8445;51.270;9.434;2023-11-18T02:53:29;100404.25;;;0.15;83.02
16664;BME280;8445;51.270;9.434;2023-11-18T02:55:56;100437.69;;;0.37;83.06
16664;BME280;8445;51.270;9.434;2023-11-18T02:58:31;100436.13;;;0.35;82.97
16664;BME280;8445;51.270;9.434;2023-11-18T03:00:58;100405.72;;;0.19;82.68
16664;BME280;8445;51.270;9.434;2023-11-18T03:03:26;100421.66;;;0.29;82.54
16664;BME280;8445;51.270;9.434;2023-11-18T03:05:53;100416.19;;;0.19;82.56
16664;BME280;8445;51.270;9.434;2023-11-18T03:08:19;100426.69;;;0.19;82.42
16664;BME280;8445;51.270;9.434;2023-11-18T03:10:44;100407.56;;;0.05;82.41
16664;BME280;8445;51.270;9.434;2023-11-18T03:13:11;100438.31;;;0.15;82.43
16664;BME280;8445;51.270;9.434;2023-11-18T03:15:38;100431.66;;;0.10;82.43
16664;BME280;8445;51.270;9.434;2023-11-18T03:18:04;100426.50;;;-0.05;82.29
16664;BME280;8445;51.270;9.434;2023-11-18T03:20:33;100448.00;;;0.01;82.64
16664;BME280;8445;51.270;9.434;2023-11-18T03:23:00;100438.53;;;-0.02;82.49
16664;BME280;8445;51.270;9.434;2023-11-18T03:25:29;100431.00;;;-0.07;82.62
16664;BME280;8445;51.270;9.434;2023-11-18T03:27:55;100418.69;;;-0.19;83.23
16664;BME280;8445;51.270;9.434;2023-11-18T03:30:21;100423.63;;;-0.14;82.83
16664;BME280;8445;51.270;9.434;2023-11-18T03:32:47;100435.03;;;-0.15;83.40
16664;BME280;8445;51.270;9.434;2023-11-18T03:35:13;100431.59;;;-0.16;83.21
16664;BME280;8445;51.270;9.434;2023-11-18T03:37:39;100415.00;;;-0.29;83.11
16664;BME280;8445;51.270;9.434;2023-11-18T03:40:11;100437.22;;;-0.22;83.33
16664;BME280;8445;51.270;9.434;2023-11-18T03:42:39;100416.03;;;-0.32;82.97
16664;BME280;8445;51.270;9.434;2023-11-18T03:45:06;100439.75;;;-0.20;83.20
16664;BME280;8445;51.270;9.434;2023-11-18T03:47:32;100409.13;;;-0.33;82.93
16664;BME280;8445;51.270;9.434;2023-11-18T03:49:59;100427.50;;;-0.20;83.42
16664;BME280;8445;51.270;9.434;2023-11-18T03:52:25;100423.31;;;-0.22;83.20
16664;BME280;8445;51.270;9.434;2023-11-18T03:54:53;100399.59;;;-0.34;83.07
16664;BME280;8445;51.270;9.434;2023-11-18T03:57:21;100419.94;;;-0.24;83.42
16664;BME280;8445;51.270;9.434;2023-11-18T03:59:47;100416.28;;;-0.22;82.96
16664;BME280;8445;51.270;9.434;2023-11-18T04:02:14;100399.28;;;-0.29;83.43
16664;BME280;8445;51.270;9.434;2023-11-18T04:04:40;100419.63;;;-0.20;83.19
16664;BME280;8445;51.270;9.434;2023-11-18T04:07:06;100403.19;;;-0.22;83.32
16664;BME280;8445;51.270;9.434;2023-11-18T04:09:32;100382.09;;;-0.33;83.22
16664;BME280;8445;51.270;9.434;2023-11-18T04:11:58;100398.06;;;-0.23;83.42
16664;BME280;8445;51.270;9.434;2023-11-18T04:14:24;100362.28;;;-0.50;83.38
16664;BME280;8445;51.270;9.434;2023-11-18T04:16:51;100401.53;;;-0.23;83.37
16664;BME280;8445;51.270;9.434;2023-11-18T04:19:18;100384.00;;;-0.35;83.32
16664;BME280;8445;51.270;9.434;2023-11-18T04:21:44;100403.09;;;-0.20;83.69
16664;BME280;8445;51.270;9.434;2023-11-18T04:24:14;100400.88;;;-0.26;83.43
16664;BME280;8445;51.270;9.434;2023-11-18T04:26:41;100405.09;;;-0.24;83.11
16664;BME280;8445;51.270;9.434;2023-11-18T04:29:07;100406.03;;;-0.25;83.03
16664;BME280;8445;51.270;9.434;2023-11-18T04:31:34;100385.13;;;-0.39;83.02
16664;BME280;8445;51.270;9.434;2023-11-18T04:34:00;100400.13;;;-0.28;83.10
16664;BME280;8445;51.270;9.434;2023-11-18T04:36:26;100405.47;;;-0.30;83.16
16664;BME280;8445;51.270;9.434;2023-11-18T04:38:52;100413.31;;;-0.30;83.59
16664;BME280;8445;51.270;9.434;2023-11-18T04:41:18;100387.41;;;-0.47;83.47
16664;BME280;8445;51.270;9.434;2023-11-18T04:43:44;100402.50;;;-0.38;83.56
16664;BME280;8445;51.270;9.434;2023-11-18T04:46:11;100407.53;;;-0.35;83.84
16664;BME280;8445;51.270;9.434;2023-11-18T04:48:38;100376.41;;;-0.52;83.97
16664;BME280;8445;51.270;9.434;2023-11-18T04:51:05;100403.25;;;-0.36;84.03
16664;BME280;8445;51.270;9.434;2023-11-18T04:53:31;100407.75;;;-0.38;84.39
16664;BME280;8445;51.270;9.434;2023-11-18T04:55:57;100390.00;;;-0.47;83.90
16664;BME280;8445;51.270;9.434;2023-11-18T04:58:23;100385.19;;;-0.53;84.13
16664;BME280;8445;51.270;9.434;2023-11-18T05:00:49;100373.22;;;-0.57;84.22
16664;BME280;8445;51.270;9.434;2023-11-18T05:03:16;100380.03;;;-0.55;83.89
16664;BME280;8445;51.270;9.434;2023-11-18T05:05:42;100406.44;;;-0.45;84.04
16664;BME280;8445;51.270;9.434;2023-11-18T05:08:19;100419.44;;;-0.44;84.12
16664;BME280;8445;51.270;9.434;2023-11-18T05:10:49;100399.00;;;-0.51;84.12
16664;BME280;8445;51.270;9.434;2023-11-18T05:13:16;100415.34;;;-0.48;84.10
16664;BME280;8445;51.270;9.434;2023-11-18T05:15:46;100409.38;;;-0.50;84.06
16664;BME280;8445;51.270;9.434;2023-11-18T05:18:13;100401.63;;;-0.51;84.14
16664;BME280;8445;51.270;9.434;2023-11-18T05:20:46;100386.28;;;-0.57;83.88
16664;BME280;8445;51.270;9.434;2023-11-18T05:23:12;100386.88;;;-0.52;84.56
16664;BME280;8445;51.270;9.434;2023-11-18T05:25:42;100372.56;;;-0.61;84.25
16664;BME280;8445;51.270;9.434;2023-11-18T05:28:12;100373.13;;;-0.56;84.07
16664;BME280;8445;51.270;9.434;2023-11-18T05:30:41;100370.41;;;-0.54;84.57
16664;BME280;8445;51.270;9.434;2023-11-18T05:33:08;100369.66;;;-0.56;84.23
16664;BME280;8445;51.270;9.434;2023-11-18T05:35:36;100348.50;;;-0.66;84.46
16664;BME280;8445;51.270;9.434;2023-11-18T05:38:02;100376.28;;;-0.51;84.44
16664;BME280;8445;51.270;9.434;2023-11-18T05:40:31;100360.97;;;-0.57;84.85
16664;BME280;8445;51.270;9.434;2023-11-18T05:42:58;100375.25;;;-0.48;84.56
16664;BME280;8445;51.270;9.434;2023-11-18T05:45:24;100365.16;;;-0.54;84.73
16664;BME280;8445;51.270;9.434;2023-11-18T05:48:02;100360.69;;;-0.52;85.17
16664;BME280;8445;51.270;9.434;2023-11-18T05:50:28;100363.63;;;-0.44;85.09
16664;BME280;8445;51.270;9.434;2023-11-18T05:52:55;100364.59;;;-0.45;84.82
16664;BME280;8445;51.270;9.434;2023-11-18T05:55:21;100357.38;;;-0.42;84.88
16664;BME280;8445;51.270;9.434;2023-11-18T05:57:47;100375.94;;;-0.32;85.00
16664;BME280;8445;51.270;9.434;2023-11-18T06:00:14;100358.03;;;-0.38;85.16
16664;BME280;8445;51.270;9.434;2023-11-18T06:02:45;100373.84;;;-0.27;85.19
16664;BME280;8445;51.270;9.434;2023-11-18T06:05:12;100382.56;;;-0.14;85.61
16664;BME280;8445;51.270;9.434;2023-11-18T06:07:39;100386.59;;;-0.08;85.27
16664;BME280;8445;51.270;9.434;2023-11-18T06:10:09;100360.06;;;-0.16;85.86
16664;BME280;8445;51.270;9.434;2023-11-18T06:12:35;100381.59;;;0.02;85.70
16664;BME280;8445;51.270;9.434;2023-11-18T06:15:03;100376.88;;;0.07;85.46
16664;BME280;8445;51.270;9.434;2023-11-18T06:17:29;100375.94;;;0.08;85.30
16664;BME280;8445;51.270;9.434;2023-11-18T06:19:55;100350.91;;;0.04;85.57
16664;BME280;8445;51.270;9.434;2023-11-18T06:22:20;100361.50;;;0.15;85.48
16664;BME280;8445;51.270;9.434;2023-11-18T06:24:46;100363.59;;;0.22;85.33
16664;BME280;8445;51.270;9.434;2023-11-18T06:27:12;100368.44;;;0.28;85.07
16664;BME280;8445;51.270;9.434;2023-11-18T06:29:38;100380.38;;;0.33;85.28
16664;BME280;8445;51.270;9.434;2023-11-18T06:32:05;100373.25;;;0.35;85.38
16664;BME280;8445;51.270;9.434;2023-11-18T06:34:31;100363.38;;;0.38;85.00
16664;BME280;8445;51.270;9.434;2023-11-18T06:36:58;100360.66;;;0.40;84.75
16664;BME280;8445;51.270;9.434;2023-11-18T06:39:24;100371.38;;;0.49;84.89
16664;BME280;8445;51.270;9.434;2023-11-18T06:41:59;100368.63;;;0.51;84.89
16664;BME280;8445;51.270;9.434;2023-11-18T06:44:25;100382.19;;;0.57;84.90
16664;BME280;8445;51.270;9.434;2023-11-18T06:46:51;100382.91;;;0.59;85.08
16664;BME280;8445;51.270;9.434;2023-11-18T06:49:17;100374.94;;;0.61;84.40
16664;BME280;8445;51.270;9.434;2023-11-18T06:51:43;100387.19;;;0.73;84.78
16664;BME280;8445;51.270;9.434;2023-11-18T06:54:09;100386.88;;;0.78;84.92
16664;BME280;8445;51.270;9.434;2023-11-18T06:56:38;100384.97;;;0.80;84.54
16664;BME280;8445;51.270;9.434;2023-11-18T06:59:08;100380.59;;;0.80;84.23
16664;BME280;8445;51.270;9.434;2023-11-18T07:01:36;100401.25;;;0.98;84.61
16664;BME280;8445;51.270;9.434;2023-11-18T07:04:02;100404.25;;;1.04;84.38
16664;BME280;8445;51.270;9.434;2023-11-18T07:06:28;100412.66;;;1.09;84.27
16664;BME280;8445;51.270;9.434;2023-11-18T07:08:55;100412.00;;;1.18;84.41
16664;BME280;8445;51.270;9.434;2023-11-18T07:11:26;100404.66;;;1.24;84.15
16664;BME280;8445;51.270;9.434;2023-11-18T07:13:53;100416.91;;;1.36;84.23
16664;BME280;8445;51.270;9.434;2023-11-18T07:16:25;100385.22;;;1.26;84.15
16664;BME280;8445;51.270;9.434;2023-11-18T07:18:52;100411.50;;;1.50;84.13
16664;BME280;8445;51.270;9.434;2023-11-18T07:21:18;100396.47;;;1.52;83.85
16664;BME280;8445;51.270;9.434;2023-11-18T07:23:44;100396.97;;;1.57;83.79
16664;BME280;8445;51.270;9.434;2023-11-18T07:26:10;100411.53;;;1.74;83.79
16664;BME280;8445;51.270;9.434;2023-11-18T07:28:37;100402.78;;;1.73;83.61
16664;BME280;8445;51.270;9.434;2023-11-18T07:31:03;100418.84;;;1.82;83.40
16664;BME280;8445;51.270;9.434;2023-11-18T07:33:31;100420.50;;;1.83;83.15
16664;BME280;8445;51.270;9.434;2023-11-18T07:35:58;100403.31;;;1.78;83.43
16664;BME280;8445;51.270;9.434;2023-11-18T07:38:24;100408.63;;;1.90;83.53
16664;BME280;8445;51.270;9.434;2023-11-18T07:40:50;100416.16;;;1.94;83.22
16664;BME280;8445;51.270;9.434;2023-11-18T07:43:18;100409.72;;;1.98;83.48
16664;BME280;8445;51.270;9.434;2023-11-18T07:45:47;100408.03;;;1.97;83.64
16664;BME280;8445;51.270;9.434;2023-11-18T07:48:19;100410.06;;;1.94;83.37
16664;BME280;8445;51.270;9.434;2023-11-18T07:50:47;100414.47;;;1.93;83.25
16664;BME280;8445;51.270;9.434;2023-11-18T07:53:13;100412.22;;;2.00;82.98
16664;BME280;8445;51.270;9.434;2023-11-18T07:55:39;100386.13;;;1.86;83.09
16664;BME280;8445;51.270;9.434;2023-11-18T07:58:07;100400.28;;;1.96;83.11
16664;BME280;8445;51.270;9.434;2023-11-18T08:00:43;100434.38;;;2.08;83.05
16664;BME280;8445;51.270;9.434;2023-11-18T08:03:11;100434.97;;;2.12;82.88
16664;BME280;8445;51.270;9.434;2023-11-18T08:05:45;100435.50;;;2.17;82.97
16664;BME280;8445;51.270;9.434;2023-11-18T08:08:14;100425.28;;;2.13;82.75
16664;BME280;8445;51.270;9.434;2023-11-18T08:10:44;100439.31;;;2.24;83.01
16664;BME280;8445;51.270;9.434;2023-11-18T08:13:11;100444.47;;;2.26;82.79
16664;BME280;8445;51.270;9.434;2023-11-18T08:15:42;100450.13;;;2.32;83.00
16664;BME280;8445;51.270;9.434;2023-11-18T08:18:09;100446.53;;;2.33;82.52
16664;BME280;8445;51.270;9.434;2023-11-18T08:20:38;100445.84;;;2.43;82.88
16664;BME280;8445;51.270;9.434;2023-11-18T08:23:05;100434.97;;;2.47;82.61
16664;BME280;8445;51.270;9.434;2023-11-18T08:25:31;100428.88;;;2.47;82.56
16664;BME280;8445;51.270;9.434;2023-11-18T08:28:00;100425.31;;;2.48;82.68
16664;BME280;8445;51.270;9.434;2023-11-18T08:30:37;100421.03;;;2.58;82.61
16664;BME280;8445;51.270;9.434;2023-11-18T08:33:03;100405.47;;;2.66;82.19
16664;BME280;8445;51.270;9.434;2023-11-18T08:35:38;100400.88;;;2.81;82.11
16664;BME280;8445;51.270;9.434;2023-11-18T08:38:05;100403.72;;;3.00;82.00
16664;BME280;8445;51.270;9.434;2023-11-18T08:40:33;100406.69;;;3.18;81.88
16664;BME280;8445;51.270;9.434;2023-11-18T08:43:00;100387.56;;;3.27;81.95
16664;BME280;8445;51.270;9.434;2023-11-18T08:45:28;100398.91;;;3.50;81.63
16664;BME280;8445;51.270;9.434;2023-11-18T08:48:00;100401.13;;;3.66;81.75
16664;BME280;8445;51.270;9.434;2023-11-18T08:50:33;100397.28;;;3.70;81.53
16664;BME280;8445;51.270;9.434;2023-11-18T08:52:59;100416.31;;;3.73;81.50
16664;BME280;8445;51.270;9.434;2023-11-18T08:55:30;100387.13;;;3.65;81.14
16664;BME280;8445;51.270;9.434;2023-11-18T08:58:09;100412.47;;;3.77;80.97
16664;BME280;8445;51.270;9.434;2023-11-18T09:00:54;100414.41;;;3.75;80.69
16664;BME280;8445;51.270;9.434;2023-11-18T09:03:25;100394.66;;;3.59;80.46
16664;BME280;8445;51.270;9.434;2023-11-18T09:06:02;100422.50;;;3.83;80.48
16664;BME280;8445;51.270;9.434;2023-11-18T09:08:37;100410.16;;;3.84;80.69
16664;BME280;8445;51.270;9.434;2023-11-18T09:11:13;100440.88;;;4.06;80.79
16664;BME280;8445;51.270;9.434;2023-11-18T09:13:47;100420.78;;;4.05;80.68
16664;BME280;8445;51.270;9.434;2023-11-18T09:16:15;100416.06;;;4.08;80.32
16664;BME280;8445;51.270;9.434;2023-11-18T09:18:43;100426.88;;;4.26;80.85
16664;BME280;8445;51.270;9.434;2023-11-18T09:21:13;100434.03;;;4.35;80.24
16664;BME280;8445;51.270;9.434;2023-11-18T09:23:45;100413.78;;;4.36;80.27
16664;BME280;8445;51.270;9.434;2023-11-18T09:26:13;100424.16;;;4.49;80.45
16664;BME280;8445;51.270;9.434;2023-11-18T09:28:40;100414.03;;;4.54;79.91
16664;BME280;8445;51.270;9.434;2023-11-18T09:31:07;100397.19;;;4.45;79.65
16664;BME280;8445;51.270;9.434;2023-11-18T09:33:39;100414.50;;;4.59;79.81
16664;BME280;8445;51.270;9.434;2023-11-18T09:36:11;100409.94;;;4.61;79.80
16664;BME280;8445;51.270;9.434;2023-11-18T09:38:40;100403.28;;;4.66;79.58
16664;BME280;8445;51.270;9.434;2023-11-18T09:41:09;100411.94;;;4.68;79.55
16664;BME280;8445;51.270;9.434;2023-11-18T09:43:43;100406.81;;;4.77;79.33
16664;BME280;8445;51.270;9.434;2023-11-18T09:46:22;100408.69;;;4.86;79.19
16664;BME280;8445;51.270;9.434;2023-11-18T09:51:43;100389.59;;;4.72;79.22
16664;BME280;8445;51.270;9.434;2023-11-18T09:55:02;100394.31;;;4.79;79.25
16664;BME280;8445;51.270;9.434;2023-11-18T10:00:02;100398.66;;;5.20;79.09
16664;BME280;8445;51.270;9.434;2023-11-18T10:02:50;100389.53;;;5.33;78.79
16664;BME280;8445;51.270;9.434;2023-11-18T10:05:20;100386.09;;;5.43;78.76
16664;BME280;8445;51.270;9.434;2023-11-18T10:07:49;100370.94;;;5.45;78.67
16664;BME280;8445;51.270;9.434;2023-11-18T10:10:19;100368.34;;;5.64;78.23
16664;BME280;8445;51.270;9.434;2023-11-18T10:12:48;100371.53;;;5.68;77.75
16664;BME280;8445;51.270;9.434;2023-11-18T10:15:24;100367.50;;;5.73;78.03
16664;BME280;8445;51.270;9.434;2023-11-18T10:17:52;100364.59;;;5.76;77.67
16664;BME280;8445;51.270;9.434;2023-11-18T10:20:46;100361.59;;;5.90;78.04
16664;BME280;8445;51.270;9.434;2023-11-18T10:23:15;100350.72;;;6.03;77.87
16664;BME280;8445;51.270;9.434;2023-11-18T10:25:56;100329.81;;;6.10;77.38
16664;BME280;8445;51.270;9.434;2023-11-18T10:28:34;100329.81;;;6.29;77.80
16664;BME280;8445;51.270;9.434;2023-11-18T10:31:05;100306.00;;;6.29;77.31
16664;BME280;8445;51.270;9.434;2023-11-18T10:33:39;100322.19;;;6.53;77.15
16664;BME280;8445;51.270;9.434;2023-11-18T10:36:21;100324.13;;;6.71;76.11
16664;BME280;8445;51.270;9.434;2023-11-18T10:38:51;100319.59;;;6.81;76.47
16664;BME280;8445;51.270;9.434;2023-11-18T10:41:22;100323.19;;;6.90;75.84
16664;BME280;8445;51.270;9.434;2023-11-18T10:43:48;100300.03;;;6.92;76.56
16664;BME280;8445;51.270;9.434;2023-11-18T10:46:16;100324.50;;;7.03;76.58
16664;BME280;8445;51.270;9.434;2023-11-18T10:48:50;100332.13;;;7.16;76.22
16664;BME280;8445;51.270;9.434;2023-11-18T10:51:18;100326.25;;;7.22;75.71
16664;BME280;8445;51.270;9.434;2023-11-18T10:53:51;100314.66;;;7.23;75.77
16664;BME280;8445;51.270;9.434;2023-11-18T10:56:29;100333.84;;;7.35;76.08
16664;BME280;8445;51.270;9.434;2023-11-18T10:59:05;100326.56;;;7.37;75.92
16664;BME280;8445;51.270;9.434;2023-11-18T11:01:37;100329.59;;;7.42;75.14
16664;BME280;8445;51.270;9.434;2023-11-18T11:04:11;100310.50;;;7.38;75.59
16664;BME280;8445;51.270;9.434;2023-11-18T11:06:45;100304.06;;;7.41;75.86
16664;BME280;8445;51.270;9.434;2023-11-18T11:09:26;100291.66;;;7.41;75.75
16664;BME280;8445;51.270;9.434;2023-11-18T11:12:10;100277.56;;;7.41;75.76
16664;BME280;8445;51.270;9.434;2023-11-18T11:14:55;100256.28;;;7.33;74.54
16664;BME280;8445;51.270;9.434;2023-11-18T11:17:27;100258.88;;;7.43;74.89
16664;BME280;8445;51.270;9.434;2023-11-18T11:20:08;100261.53;;;7.43;74.68
16664;BME280;8445;51.270;9.434;2023-11-18T11:23:21;100278.25;;;7.43;75.36
16664;BME280;8445;51.270;9.434;2023-11-18T11:26:34;100276.13;;;7.29;75.08
16664;BME280;8445;51.270;9.434;2023-11-18T11:32:18;100269.16;;;7.28;75.40
16664;BME280;8445;51.270;9.434;2023-11-18T11:35:01;100265.59;;;7.19;75.42
16664;BME280;8445;51.270;9.434;2023-11-18T11:37:34;100245.31;;;7.10;75.52
16664;BME280;8445;51.270;9.434;2023-11-18T11:40:04;100230.00;;;7.04;76.09
16664;BME280;8445;51.270;9.434;2023-11-18T11:42:33;100231.59;;;7.15;75.77
16664;BME280;8445;51.270;9.434;2023-11-18T11:45:01;100227.13;;;7.15;75.82
16664;BME280;8445;51.270;9.434;2023-11-18T11:47:30;100212.91;;;7.16;76.10
16664;BME280;8445;51.270;9.434;2023-11-18T11:50:32;100178.41;;;7.08;75.79
16664;BME280;8445;51.270;9.434;2023-11-18T11:53:15;100184.59;;;7.17;75.77
16664;BME280;8445;51.270;9.434;2023-11-18T11:55:55;100179.16;;;7.18;75.64
16664;BME280;8445;51.270;9.434;2023-11-18T11:58:36;100177.72;;;7.24;75.51
16664;BME280;8445;51.270;9.434;2023-11-18T12:01:16;100172.19;;;7.17;75.72
16664;BME280;8445;51.270;9.434;2023-11-18T12:03:52;100188.59;;;7.21;75.58
16664;BME280;8445;51.270;9.434;2023-11-18T12:06:26;100194.50;;;7.32;75.68
16664;BME280;8445;51.270;9.434;2023-11-18T12:08:53;100205.50;;;7.37;75.76
16664;BME280;8445;51.270;9.434;2023-11-18T12:11:21;100194.22;;;7.35;75.90
16664;BME280;8445;51.270;9.434;2023-11-18T12:14:02;100174.59;;;7.28;75.62
16664;BME280;8445;51.270;9.434;2023-11-18T12:17:19;100189.81;;;7.44;75.74
16664;BME280;8445;51.270;9.434;2023-11-18T12:19:50;100174.22;;;7.41;75.65
16664;BME280;8445;51.270;9.434;2023-11-18T12:22:23;100164.09;;;7.36;75.71
16664;BME280;8445;51.270;9.434;2023-11-18T12:33:01;100183.38;;;7.47;75.47
16664;BME280;8445;51.270;9.434;2023-11-18T12:42:05;100180.16;;;7.35;75.94
16664;BME280;8445;51.270;9.434;2023-11-18T12:47:48;100136.41;;;7.13;75.90
16664;BME280;8445;51.270;9.434;2023-11-18T12:50:21;100158.41;;;7.14;75.86
16664;BME280;8445;51.270;9.434;2023-11-18T12:52:52;100160.44;;;7.20;75.78
16664;BME280;8445;51.270;9.434;2023-11-18T12:55:19;100159.94;;;7.16;75.94
16664;BME280;8445;51.270;9.434;2023-11-18T12:57:49;100136.63;;;7.02;76.13
16664;BME280;8445;51.270;9.434;2023-11-18T13:00:17;100153.72;;;7.07;76.15
16664;BME280;8445;51.270;9.434;2023-11-18T13:03:00;100160.00;;;7.06;76.00
16664;BME280;8445;51.270;9.434;2023-11-18T13:05:26;100144.88;;;6.99;76.08
16664;BME280;8445;51.270;9.434;2023-11-18T13:07:58;100112.56;;;6.77;76.03
16664;BME280;8445;51.270;9.434;2023-11-18T13:10:27;100142.38;;;6.97;76.33
16664;BME280;8445;51.270;9.434;2023-11-18T13:12:54;100138.06;;;6.96;76.17
16664;BME280;8445;51.270;9.434;2023-11-18T13:15:20;100141.72;;;6.95;76.56
16664;BME280;8445;51.270;9.434;2023-11-18T13:18:04;100117.78;;;6.87;76.60
16664;BME280;8445;51.270;9.434;2023-11-18T13:20:33;100114.47;;;6.85;76.54
16664;BME280;8445;51.270;9.434;2023-11-18T13:23:03;100114.41;;;6.95;76.38
16664;BME280;8445;51.270;9.434;2023-11-18T13:25:37;100078.53;;;6.82;76.57
16664;BME280;8445;51.270;9.434;2023-11-18T13:28:11;100103.50;;;6.98;76.49
16664;BME280;8445;51.270;9.434;2023-11-18T13:30:36;100092.44;;;7.02;76.80
16664;BME280;8445;51.270;9.434;2023-11-18T13:33:04;100090.47;;;7.04;76.88
16664;BME280;8445;51.270;9.434;2023-11-18T13:35:30;100091.44;;;7.03;76.97
16664;BME280;8445;51.270;9.434;2023-11-18T13:37:56;100085.28;;;6.95;76.80
16664;BME280;8445;51.270;9.434;2023-11-18T13:40:40;100091.44;;;7.03;76.76
16664;BME280;8445;51.270;9.434;2023-11-18T13:43:06;100071.47;;;6.91;76.93
16664;BME280;8445;51.270;9.434;2023-11-18T13:45:34;100060.22;;;6.89;76.39
16664;BME280;8445;51.270;9.434;2023-11-18T13:48:00;100071.88;;;6.96;76.97
16664;BME280;8445;51.270;9.434;2023-11-18T13:50:27;100068.91;;;6.99;76.87